sensor_id;sensor_type;location;lat;lon;timestamp;temperature;humidity
22742;DHT22;11538;48.884;8.696;2023-11-21T00:00:15;9.40;99.90
22742;DHT22;11538;48.884;8.696;2023-11-21T00:02:44;9.40;99.90
22742;DHT22;11538;48.884;8.696;2023-11-21T00:05:13;9.40;99.90
22742;DHT22;11538;48.884;8.696;2023-11-21T00:07:41;9.40;99.90
22742;DHT22;11538;48.884;8.696;2023-11-21T00:10:12;9.40;99.90
22742;DHT22;11538;48.884;8.696;2023-11-21T00:12:41;9.50;99.90
22742;DHT22;11538;48.884;8.696;2023-11-21T00:15:09;9.50;99.90
22742;DHT22;11538;48.884;8.696;2023-11-21T00:17:40;9.50;99.90
22742;DHT22;11538;48.884;8.696;2023-11-21T00:20:09;9.50;99.90
22742;DHT22;11538;48.884;8.696;2023-11-21T00:22:40;9.50;99.90
22742;DHT22;11538;48.884;8.696;2023-11-21T00:25:07;9.50;99.90
22742;DHT22;11538;48.884;8.696;2023-11-21T00:27:36;9.50;99.90
22742;DHT22;11538;48.884;8.696;2023-11-21T00:30:04;9.50;99.90
22742;DHT22;11538;48.884;8.696;2023-11-21T00:32:32;9.60;99.90
22742;DHT22;11538;48.884;8.696;2023-11-21T00:34:59;9.60;99.90
22742;DHT22;11538;48.884;8.696;2023-11-21T00:37:26;9.60;99.90
22742;DHT22;11538;48.884;8.696;2023-11-21T00:39:54;9.60;99.90
22742;DHT22;11538;48.884;8.696;2023-11-21T00:42:22;9.60;99.90
22742;DHT22;11538;48.884;8.696;2023-11-21T00:44:49;9.60;99.90
22742;DHT22;11538;48.884;8.696;2023-11-21T00:47:16;9.70;99.90
22742;DHT22;11538;48.884;8.696;2023-11-21T00:49:43;9.70;99.90
22742;DHT22;11538;48.884;8.696;2023-11-21T00:52:10;9.70;99.90
22742;DHT22;11538;48.884;8.696;2023-11-21T00:54:37;9.70;99.90
22742;DHT22;11538;48.884;8.696;2023-11-21T00:57:04;9.80;99.90
22742;DHT22;11538;48.884;8.696;2023-11-21T00:59:31;9.80;99.90
22742;DHT22;11538;48.884;8.696;2023-11-21T01:01:58;9.80;99.90
22742;DHT22;11538;48.884;8.696;2023-11-21T01:04:27;9.80;99.90
22742;DHT22;11538;48.884;8.696;2023-11-21T01:06:55;9.80;99.90
22742;DHT22;11538;48.884;8.696;2023-11-21T01:09:24;9.80;99.90
22742;DHT22;11538;48.884;8.696;2023-11-21T01:11:52;9.80;99.90
22742;DHT22;11538;48.884;8.696;2023-11-21T01:14:20;9.80;99.90
22742;DHT22;11538;48.884;8.696;2023-11-21T01:16:47;9.80;99.90
22742;DHT22;11538;48.884;8.696;2023-11-21T01:19:17;9.90;99.90
22742;DHT22;11538;48.884;8.696;2023-11-21T01:21:44;9.80;99.90
22742;DHT22;11538;48.884;8.696;2023-11-21T01:24:11;9.80;99.90
22742;DHT22;11538;48.884;8.696;2023-11-21T01:26:38;9.90;99.90
22742;DHT22;11538;48.884;8.696;2023-11-21T01:29:06;9.90;99.90
22742;DHT22;11538;48.884;8.696;2023-11-21T01:31:33;9.90;99.90
22742;DHT22;11538;48.884;8.696;2023-11-21T01:34:00;9.90;99.90
22742;DHT22;11538;48.884;8.696;2023-11-21T01:36:31;9.90;99.90
22742;DHT22;11538;48.884;8.696;2023-11-21T01:38:59;9.90;99.90
22742;DHT22;11538;48.884;8.696;2023-11-21T01:41:31;9.90;99.90
22742;DHT22;11538;48.884;8.696;2023-11-21T01:43:58;10.00;99.90
22742;DHT22;11538;48.884;8.696;2023-11-21T01:46:25;10.00;99.90
22742;DHT22;11538;48.884;8.696;2023-11-21T01:48:52;10.00;99.90
22742;DHT22;11538;48.884;8.696;2023-11-21T01:51:20;10.00;99.90
22742;DHT22;11538;48.884;8.696;2023-11-21T01:53:48;10.00;99.90
22742;DHT22;11538;48.884;8.696;2023-11-21T01:56:17;10.00;99.90
22742;DHT22;11538;48.884;8.696;2023-11-21T01:58:45;10.00;99.90
22742;DHT22;11538;48.884;8.696;2023-11-21T02:01:14;10.00;99.90
22742;DHT22;11538;48.884;8.696;2023-11-21T02:03:41;10.00;99.90
22742;DHT22;11538;48.884;8.696;2023-11-21T02:06:08;10.00;99.90
22742;DHT22;11538;48.884;8.696;2023-11-21T02:08:35;10.10;99.90
22742;DHT22;11538;48.884;8.696;2023-11-21T02:11:06;10.00;99.90
22742;DHT22;11538;48.884;8.696;2023-11-21T02:13:33;10.10;99.90
22742;DHT22;11538;48.884;8.696;2023-11-21T02:16:01;10.00;99.90
22742;DHT22;11538;48.884;8.696;2023-11-21T02:18:28;10.00;99.90
22742;DHT22;11538;48.884;8.696;2023-11-21T02:20:56;10.00;99.90
22742;DHT22;11538;48.884;8.696;2023-11-21T02:23:23;10.10;99.90
22742;DHT22;11538;48.884;8.696;2023-11-21T02:25:56;10.00;99.90
22742;DHT22;11538;48.884;8.696;2023-11-21T02:28:23;10.00;99.90
22742;DHT22;11538;48.884;8.696;2023-11-21T02:30:53;10.00;99.90
22742;DHT22;11538;48.884;8.696;2023-11-21T02:33:23;9.90;99.90
22742;DHT22;11538;48.884;8.696;2023-11-21T02:35:50;9.90;99.90
22742;DHT22;11538;48.884;8.696;2023-11-21T02:38:22;9.80;99.90
22742;DHT22;11538;48.884;8.696;2023-11-21T02:40:49;9.80;99.90
22742;DHT22;11538;48.884;8.696;2023-11-21T02:43:16;9.70;99.90
22742;DHT22;11538;48.884;8.696;2023-11-21T02:45:43;9.70;99.90
22742;DHT22;11538;48.884;8.696;2023-11-21T02:48:10;9.60;99.90
22742;DHT22;11538;48.884;8.696;2023-11-21T02:50:37;9.60;99.90
22742;DHT22;11538;48.884;8.696;2023-11-21T02:53:04;9.60;99.90
22742;DHT22;11538;48.884;8.696;2023-11-21T02:55:32;9.60;99.90
22742;DHT22;11538;48.884;8.696;2023-11-21T02:58:02;9.60;99.90
22742;DHT22;11538;48.884;8.696;2023-11-21T03:00:32;9.50;99.90
22742;DHT22;11538;48.884;8.696;2023-11-21T03:02:59;9.50;99.90
22742;DHT22;11538;48.884;8.696;2023-11-21T03:05:27;9.50;99.90
22742;DHT22;11538;48.884;8.696;2023-11-21T03:07:55;9.50;99.90
22742;DHT22;11538;48.884;8.696;2023-11-21T03:10:22;9.40;99.90
22742;DHT22;11538;48.884;8.696;2023-11-21T03:12:49;9.40;99.90
22742;DHT22;11538;48.884;8.696;2023-11-21T03:15:16;9.40;99.90
22742;DHT22;11538;48.884;8.696;2023-11-21T03:17:43;9.40;99.90
22742;DHT22;11538;48.884;8.696;2023-11-21T03:20:10;9.30;99.90
22742;DHT22;11538;48.884;8.696;2023-11-21T03:22:38;9.30;99.90
22742;DHT22;11538;48.884;8.696;2023-11-21T03:25:06;9.30;99.90
22742;DHT22;11538;48.884;8.696;2023-11-21T03:27:37;9.30;99.90
22742;DHT22;11538;48.884;8.696;2023-11-21T03:30:08;9.30;99.90
22742;DHT22;11538;48.884;8.696;2023-11-21T03:32:36;9.30;99.90
22742;DHT22;11538;48.884;8.696;2023-11-21T03:35:04;9.30;99.90
22742;DHT22;11538;48.884;8.696;2023-11-21T03:37:32;9.40;99.90
22742;DHT22;11538;48.884;8.696;2023-11-21T03:39:59;9.30;99.90
22742;DHT22;11538;48.884;8.696;2023-11-21T03:42:26;9.40;99.90
22742;DHT22;11538;48.884;8.696;2023-11-21T03:44:54;9.40;99.90
22742;DHT22;11538;48.884;8.696;2023-11-21T03:47:21;9.40;99.90
22742;DHT22;11538;48.884;8.696;2023-11-21T03:49:48;9.40;99.90
22742;DHT22;11538;48.884;8.696;2023-11-21T03:52:15;9.40;99.90
22742;DHT22;11538;48.884;8.696;2023-11-21T03:54:42;9.40;99.90
22742;DHT22;11538;48.884;8.696;2023-11-21T03:57:10;9.40;99.90
22742;DHT22;11538;48.884;8.696;2023-11-21T03:59:40;9.40;99.90
22742;DHT22;11538;48.884;8.696;2023-11-21T04:02:08;9.40;99.90
22742;DHT22;11538;48.884;8.696;2023-11-21T04:04:36;9.30;99.90
22742;DHT22;11538;48.884;8.696;2023-11-21T04:07:03;9.40;99.90
22742;DHT22;11538;48.884;8.696;2023-11-21T04:09:31;9.30;99.90
22742;DHT22;11538;48.884;8.696;2023-11-21T04:11:57;9.30;99.90
22742;DHT22;11538;48.884;8.696;2023-11-21T04:14:25;9.30;99.90
22742;DHT22;11538;48.884;8.696;2023-11-21T04:16:51;9.30;99.90
22742;DHT22;11538;48.884;8.696;2023-11-21T04:19:20;9.30;99.90
22742;DHT22;11538;48.884;8.696;2023-11-21T04:21:47;9.30;99.90
22742;DHT22;11538;48.884;8.696;2023-11-21T04:24:14;9.30;99.90
22742;DHT22;11538;48.884;8.696;2023-11-21T04:26:41;9.30;99.90
22742;DHT22;11538;48.884;8.696;2023-11-21T04:29:08;9.30;99.90
22742;DHT22;11538;48.884;8.696;2023-11-21T04:31:35;9.30;99.90
22742;DHT22;11538;48.884;8.696;2023-11-21T04:34:02;9.30;99.90
22742;DHT22;11538;48.884;8.696;2023-11-21T04:36:30;9.20;99.90
22742;DHT22;11538;48.884;8.696;2023-11-21T04:38:58;9.20;99.90
22742;DHT22;11538;48.884;8.696;2023-11-21T04:41:25;9.20;99.90
22742;DHT22;11538;48.884;8.696;2023-11-21T04:43:52;9.20;99.90
22742;DHT22;11538;48.884;8.696;2023-11-21T04:46:19;9.20;99.90
22742;DHT22;11538;48.884;8.696;2023-11-21T04:48:46;9.10;99.90
22742;DHT22;11538;48.884;8.696;2023-11-21T04:51:13;9.10;99.90
22742;DHT22;11538;48.884;8.696;2023-11-21T04:53:40;9.10;99.90
22742;DHT22;11538;48.884;8.696;2023-11-21T04:56:07;9.20;99.90
22742;DHT22;11538;48.884;8.696;2023-11-21T04:58:34;9.20;99.90
22742;DHT22;11538;48.884;8.696;2023-11-21T05:01:02;9.20;99.90
22742;DHT22;11538;48.884;8.696;2023-11-21T05:03:34;9.20;99.90
22742;DHT22;11538;48.884;8.696;2023-11-21T05:06:01;9.20;99.90
22742;DHT22;11538;48.884;8.696;2023-11-21T05:08:28;9.20;99.90
22742;DHT22;11538;48.884;8.696;2023-11-21T05:10:55;9.20;99.90
22742;DHT22;11538;48.884;8.696;2023-11-21T05:13:22;9.20;99.90
22742;DHT22;11538;48.884;8.696;2023-11-21T05:15:54;9.20;99.90
22742;DHT22;11538;48.884;8.696;2023-11-21T05:18:24;9.10;99.90
22742;DHT22;11538;48.884;8.696;2023-11-21T05:20:56;9.10;99.90
22742;DHT22;11538;48.884;8.696;2023-11-21T05:23:23;9.10;99.90
22742;DHT22;11538;48.884;8.696;2023-11-21T05:25:50;9.10;99.90
22742;DHT22;11538;48.884;8.696;2023-11-21T05:28:17;9.10;99.90
22742;DHT22;11538;48.884;8.696;2023-11-21T05:30:44;9.00;99.90
22742;DHT22;11538;48.884;8.696;2023-11-21T05:33:11;9.00;99.90
22742;DHT22;11538;48.884;8.696;2023-11-21T05:35:38;8.90;99.90
22742;DHT22;11538;48.884;8.696;2023-11-21T05:38:05;8.90;99.90
22742;DHT22;11538;48.884;8.696;2023-11-21T05:40:32;8.80;99.90
22742;DHT22;11538;48.884;8.696;2023-11-21T05:42:59;8.80;99.90
22742;DHT22;11538;48.884;8.696;2023-11-21T05:45:26;8.80;99.90
22742;DHT22;11538;48.884;8.696;2023-11-21T05:47:54;8.70;99.90
22742;DHT22;11538;48.884;8.696;2023-11-21T05:50:22;8.80;99.90
22742;DHT22;11538;48.884;8.696;2023-11-21T05:52:49;8.70;99.90
22742;DHT22;11538;48.884;8.696;2023-11-21T05:55:16;8.70;99.90
22742;DHT22;11538;48.884;8.696;2023-11-21T05:57:44;8.70;99.90
22742;DHT22;11538;48.884;8.696;2023-11-21T06:00:13;8.70;99.90
22742;DHT22;11538;48.884;8.696;2023-11-21T06:02:43;8.70;99.90
22742;DHT22;11538;48.884;8.696;2023-11-21T06:05:11;8.70;99.90
22742;DHT22;11538;48.884;8.696;2023-11-21T06:07:39;8.70;99.90
22742;DHT22;11538;48.884;8.696;2023-11-21T06:10:08;8.70;99.90
22742;DHT22;11538;48.884;8.696;2023-11-21T06:12:37;8.70;99.90
22742;DHT22;11538;48.884;8.696;2023-11-21T06:15:05;8.70;99.90
22742;DHT22;11538;48.884;8.696;2023-11-21T06:17:35;8.70;99.90
22742;DHT22;11538;48.884;8.696;2023-11-21T06:20:04;8.70;99.90
22742;DHT22;11538;48.884;8.696;2023-11-21T06:22:48;8.70;99.90
22742;DHT22;11538;48.884;8.696;2023-11-21T06:25:17;8.70;99.90
22742;DHT22;11538;48.884;8.696;2023-11-21T06:27:46;8.70;99.90
22742;DHT22;11538;48.884;8.696;2023-11-21T06:30:16;8.80;99.90
22742;DHT22;11538;48.884;8.696;2023-11-21T06:32:45;8.70;99.90
22742;DHT22;11538;48.884;8.696;2023-11-21T06:35:13;8.70;99.90
22742;DHT22;11538;48.884;8.696;2023-11-21T06:37:42;8.80;99.90
22742;DHT22;11538;48.884;8.696;2023-11-21T06:40:14;8.80;99.90
22742;DHT22;11538;48.884;8.696;2023-11-21T06:42:41;8.80;99.90
22742;DHT22;11538;48.884;8.696;2023-11-21T06:45:10;8.80;99.90
22742;DHT22;11538;48.884;8.696;2023-11-21T06:47:38;8.80;99.90
22742;DHT22;11538;48.884;8.696;2023-11-21T06:50:05;8.90;99.90
22742;DHT22;11538;48.884;8.696;2023-11-21T06:52:33;8.90;99.90
22742;DHT22;11538;48.884;8.696;2023-11-21T06:55:01;8.90;99.90
22742;DHT22;11538;48.884;8.696;2023-11-21T06:57:28;8.90;99.90
22742;DHT22;11538;48.884;8.696;2023-11-21T06:59:54;8.90;99.90
22742;DHT22;11538;48.884;8.696;2023-11-21T07:02:24;8.90;99.90
22742;DHT22;11538;48.884;8.696;2023-11-21T07:04:51;8.90;99.90
22742;DHT22;11538;48.884;8.696;2023-11-21T07:07:18;8.90;99.90
22742;DHT22;11538;48.884;8.696;2023-11-21T07:09:46;8.90;99.90
22742;DHT22;11538;48.884;8.696;2023-11-21T07:12:14;8.90;99.90
22742;DHT22;11538;48.884;8.696;2023-11-21T07:14:41;8.90;99.90
22742;DHT22;11538;48.884;8.696;2023-11-21T07:17:11;8.90;99.90
22742;DHT22;11538;48.884;8.696;2023-11-21T07:19:39;8.90;99.90
22742;DHT22;11538;48.884;8.696;2023-11-21T07:22:06;8.90;99.90
22742;DHT22;11538;48.884;8.696;2023-11-21T07:24:34;8.90;99.90
22742;DHT22;11538;48.884;8.696;2023-11-21T07:27:01;8.90;99.90
22742;DHT22;11538;48.884;8.696;2023-11-21T07:29:30;9.00;99.90
22742;DHT22;11538;48.884;8.696;2023-11-21T07:31:58;9.00;99.90
22742;DHT22;11538;48.884;8.696;2023-11-21T07:34:25;9.00;99.90
22742;DHT22;11538;48.884;8.696;2023-11-21T07:36:52;9.00;99.90
22742;DHT22;11538;48.884;8.696;2023-11-21T07:39:19;9.00;99.90
22742;DHT22;11538;48.884;8.696;2023-11-21T07:41:46;9.00;99.90
22742;DHT22;11538;48.884;8.696;2023-11-21T07:44:18;9.00;99.90
22742;DHT22;11538;48.884;8.696;2023-11-21T07:46:46;9.00;99.90
22742;DHT22;11538;48.884;8.696;2023-11-21T07:49:16;9.10;99.90
22742;DHT22;11538;48.884;8.696;2023-11-21T07:51:47;9.10;99.90
22742;DHT22;11538;48.884;8.696;2023-11-21T07:54:13;9.10;99.90
22742;DHT22;11538;48.884;8.696;2023-11-21T07:56:40;9.00;99.90
22742;DHT22;11538;48.884;8.696;2023-11-21T07:59:07;9.10;99.90
22742;DHT22;11538;48.884;8.696;2023-11-21T08:01:38;9.10;99.90
22742;DHT22;11538;48.884;8.696;2023-11-21T08:04:06;9.10;99.90
22742;DHT22;11538;48.884;8.696;2023-11-21T08:06:35;9.10;99.90
22742;DHT22;11538;48.884;8.696;2023-11-21T08:09:01;9.10;99.90
22742;DHT22;11538;48.884;8.696;2023-11-21T08:11:29;9.10;99.90
22742;DHT22;11538;48.884;8.696;2023-11-21T08:13:58;9.10;99.90
22742;DHT22;11538;48.884;8.696;2023-11-21T08:16:26;9.10;99.90
22742;DHT22;11538;48.884;8.696;2023-11-21T08:18:54;9.10;99.90
22742;DHT22;11538;48.884;8.696;2023-11-21T08:21:21;9.10;99.90
22742;DHT22;11538;48.884;8.696;2023-11-21T08:23:50;9.20;99.90
22742;DHT22;11538;48.884;8.696;2023-11-21T08:26:21;9.20;99.90
22742;DHT22;11538;48.884;8.696;2023-11-21T08:28:49;9.20;99.90
22742;DHT22;11538;48.884;8.696;2023-11-21T08:31:24;9.30;99.90
22742;DHT22;11538;48.884;8.696;2023-11-21T08:33:55;9.30;99.90
22742;DHT22;11538;48.884;8.696;2023-11-21T08:36:22;9.30;99.90
22742;DHT22;11538;48.884;8.696;2023-11-21T08:38:51;9.30;99.90
22742;DHT22;11538;48.884;8.696;2023-11-21T08:41:21;9.40;99.90
22742;DHT22;11538;48.884;8.696;2023-11-21T08:43:50;9.30;99.90
22742;DHT22;11538;48.884;8.696;2023-11-21T08:46:18;9.40;99.90
22742;DHT22;11538;48.884;8.696;2023-11-21T08:48:45;9.50;99.90
22742;DHT22;11538;48.884;8.696;2023-11-21T08:51:12;9.50;99.90
22742;DHT22;11538;48.884;8.696;2023-11-21T08:53:40;9.50;99.90
22742;DHT22;11538;48.884;8.696;2023-11-21T08:56:07;9.50;99.90
22742;DHT22;11538;48.884;8.696;2023-11-21T08:58:36;9.60;99.90
22742;DHT22;11538;48.884;8.696;2023-11-21T09:01:04;9.60;99.90
22742;DHT22;11538;48.884;8.696;2023-11-21T09:03:33;9.60;99.90
22742;DHT22;11538;48.884;8.696;2023-11-21T09:06:01;9.70;99.90
22742;DHT22;11538;48.884;8.696;2023-11-21T09:08:28;9.60;99.90
22742;DHT22;11538;48.884;8.696;2023-11-21T09:10:56;9.60;99.90
22742;DHT22;11538;48.884;8.696;2023-11-21T09:13:23;9.70;99.90
22742;DHT22;11538;48.884;8.696;2023-11-21T09:15:52;9.70;99.90
22742;DHT22;11538;48.884;8.696;2023-11-21T09:18:19;9.70;99.90
22742;DHT22;11538;48.884;8.696;2023-11-21T09:20:46;9.80;99.90
22742;DHT22;11538;48.884;8.696;2023-11-21T09:23:13;9.80;99.90
22742;DHT22;11538;48.884;8.696;2023-11-21T09:25:40;9.80;99.90
22742;DHT22;11538;48.884;8.696;2023-11-21T09:28:07;9.80;99.90
22742;DHT22;11538;48.884;8.696;2023-11-21T09:30:36;9.90;99.90
22742;DHT22;11538;48.884;8.696;2023-11-21T09:33:04;9.90;99.90
22742;DHT22;11538;48.884;8.696;2023-11-21T09:35:37;9.90;99.90
22742;DHT22;11538;48.884;8.696;2023-11-21T09:38:04;9.90;99.90
22742;DHT22;11538;48.884;8.696;2023-11-21T09:40:38;9.90;99.90
22742;DHT22;11538;48.884;8.696;2023-11-21T09:43:17;10.00;99.90
22742;DHT22;11538;48.884;8.696;2023-11-21T09:45:46;10.00;99.90
22742;DHT22;11538;48.884;8.696;2023-11-21T09:48:14;10.00;99.90
22742;DHT22;11538;48.884;8.696;2023-11-21T09:50:43;10.00;99.90
22742;DHT22;11538;48.884;8.696;2023-11-21T09:53:15;10.00;99.90
22742;DHT22;11538;48.884;8.696;2023-11-21T09:55:46;10.00;99.90
22742;DHT22;11538;48.884;8.696;2023-11-21T09:58:15;10.00;99.90
22742;DHT22;11538;48.884;8.696;2023-11-21T10:00:43;10.00;99.90
22742;DHT22;11538;48.884;8.696;2023-11-21T10:03:12;10.00;99.90
22742;DHT22;11538;48.884;8.696;2023-11-21T10:05:42;10.00;99.90
22742;DHT22;11538;48.884;8.696;2023-11-21T10:08:12;10.00;99.90
22742;DHT22;11538;48.884;8.696;2023-11-21T10:10:46;10.10;99.90
22742;DHT22;11538;48.884;8.696;2023-11-21T10:13:18;10.10;99.90
22742;DHT22;11538;48.884;8.696;2023-11-21T10:15:50;10.10;99.90
22742;DHT22;11538;48.884;8.696;2023-11-21T10:18:19;10.10;99.90
22742;DHT22;11538;48.884;8.696;2023-11-21T10:20:46;10.10;99.90
22742;DHT22;11538;48.884;8.696;2023-11-21T10:23:20;10.20;99.90
22742;DHT22;11538;48.884;8.696;2023-11-21T10:25:51;10.20;99.90
22742;DHT22;11538;48.884;8.696;2023-11-21T10:28:20;10.20;99.90
22742;DHT22;11538;48.884;8.696;2023-11-21T10:30:47;10.20;99.90
22742;DHT22;11538;48.884;8.696;2023-11-21T10:33:14;10.30;99.90
22742;DHT22;11538;48.884;8.696;2023-11-21T10:38:21;10.30;99.90
22742;DHT22;11538;48.884;8.696;2023-11-21T10:40:53;10.40;99.90
22742;DHT22;11538;48.884;8.696;2023-11-21T10:43:25;10.40;99.90
22742;DHT22;11538;48.884;8.696;2023-11-21T10:45:57;10.50;99.90
22742;DHT22;11538;48.884;8.696;2023-11-21T10:48:26;10.50;99.90
22742;DHT22;11538;48.884;8.696;2023-11-21T10:50:54;10.50;99.90
22742;DHT22;11538;48.884;8.696;2023-11-21T10:53:23;10.50;99.90
22742;DHT22;11538;48.884;8.696;2023-11-21T10:55:50;10.50;99.90
22742;DHT22;11538;48.884;8.696;2023-11-21T10:58:29;10.60;99.90
22742;DHT22;11538;48.884;8.696;2023-11-21T11:00:56;10.60;99.90
22742;DHT22;11538;48.884;8.696;2023-11-21T11:03:24;10.50;99.90
22742;DHT22;11538;48.884;8.696;2023-11-21T11:05:52;10.60;99.90
22742;DHT22;11538;48.884;8.696;2023-11-21T11:08:21;10.60;99.90
22742;DHT22;11538;48.884;8.696;2023-11-21T11:10:54;10.60;99.90
22742;DHT22;11538;48.884;8.696;2023-11-21T11:13:22;10.60;99.90
22742;DHT22;11538;48.884;8.696;2023-11-21T11:15:49;10.60;99.90
22742;DHT22;11538;48.884;8.696;2023-11-21T11:18:18;10.60;99.90
22742;DHT22;11538;48.884;8.696;2023-11-21T11:20:49;10.50;99.90
22742;DHT22;11538;48.884;8.696;2023-11-21T11:23:38;10.50;99.90
22742;DHT22;11538;48.884;8.696;2023-11-21T11:32:27;10.50;99.90
22742;DHT22;11538;48.884;8.696;2023-11-21T11:35:17;10.40;99.90
22742;DHT22;11538;48.884;8.696;2023-11-21T11:37:50;10.40;99.90
22742;DHT22;11538;48.884;8.696;2023-11-21T11:40:17;10.30;99.90
22742;DHT22;11538;48.884;8.696;2023-11-21T11:43:00;10.30;99.90
22742;DHT22;11538;48.884;8.696;2023-11-21T11:45:35;10.30;99.90
22742;DHT22;11538;48.884;8.696;2023-11-21T11:48:05;10.20;99.90
22742;DHT22;11538;48.884;8.696;2023-11-21T11:50:33;10.20;99.90
22742;DHT22;11538;48.884;8.696;2023-11-21T11:53:14;10.20;99.90
22742;DHT22;11538;48.884;8.696;2023-11-21T11:55:42;10.20;99.90
22742;DHT22;11538;48.884;8.696;2023-11-21T11:58:10;10.20;99.90
22742;DHT22;11538;48.884;8.696;2023-11-21T12:00:38;10.20;99.90
22742;DHT22;11538;48.884;8.696;2023-11-21T12:03:09;10.30;99.90
22742;DHT22;11538;48.884;8.696;2023-11-21T12:05:36;10.30;99.90
22742;DHT22;11538;48.884;8.696;2023-11-21T12:08:07;10.40;99.90
22742;DHT22;11538;48.884;8.696;2023-11-21T12:10:36;10.40;99.90
22742;DHT22;11538;48.884;8.696;2023-11-21T12:13:08;10.50;99.90
22742;DHT22;11538;48.884;8.696;2023-11-21T12:15:39;10.50;99.90
22742;DHT22;11538;48.884;8.696;2023-11-21T12:18:08;10.50;99.90
22742;DHT22;11538;48.884;8.696;2023-11-21T12:20:35;10.50;99.90
22742;DHT22;11538;48.884;8.696;2023-11-21T12:23:09;10.50;99.90
22742;DHT22;11538;48.884;8.696;2023-11-21T12:25:38;10.50;99.90
22742;DHT22;11538;48.884;8.696;2023-11-21T12:28:08;10.50;99.90
22742;DHT22;11538;48.884;8.696;2023-11-21T12:30:36;10.60;99.90
22742;DHT22;11538;48.884;8.696;2023-11-21T12:33:05;10.60;99.90
22742;DHT22;11538;48.884;8.696;2023-11-21T12:35:35;10.60;99.90
22742;DHT22;11538;48.884;8.696;2023-11-21T12:38:03;10.60;99.90
22742;DHT22;11538;48.884;8.696;2023-11-21T12:40:36;10.60;99.90
22742;DHT22;11538;48.884;8.696;2023-11-21T12:43:03;10.60;99.90
22742;DHT22;11538;48.884;8.696;2023-11-21T12:45:32;10.60;99.90
22742;DHT22;11538;48.884;8.696;2023-11-21T12:48:04;10.60;99.90
22742;DHT22;11538;48.884;8.696;2023-11-21T12:50:39;10.70;99.90
22742;DHT22;11538;48.884;8.696;2023-11-21T12:53:09;10.70;99.90
22742;DHT22;11538;48.884;8.696;2023-11-21T12:55:41;10.70;99.90
22742;DHT22;11538;48.884;8.696;2023-11-21T12:58:16;10.70;99.90
22742;DHT22;11538;48.884;8.696;2023-11-21T13:00:46;10.70;99.90
22742;DHT22;11538;48.884;8.696;2023-11-21T13:03:16;10.70;99.90
22742;DHT22;11538;48.884;8.696;2023-11-21T13:05:48;10.70;99.90
22742;DHT22;11538;48.884;8.696;2023-11-21T13:08:21;10.70;99.90
22742;DHT22;11538;48.884;8.696;2023-11-21T13:10:53;10.60;99.90
22742;DHT22;11538;48.884;8.696;2023-11-21T13:13:23;10.60;99.90
22742;DHT22;11538;48.884;8.696;2023-11-21T13:15:56;10.60;99.90
22742;DHT22;11538;48.884;8.696;2023-11-21T13:18:28;10.60;99.90
22742;DHT22;11538;48.884;8.696;2023-11-21T13:20:57;10.60;99.90
22742;DHT22;11538;48.884;8.696;2023-11-21T13:23:26;10.60;99.90
22742;DHT22;11538;48.884;8.696;2023-11-21T13:25:54;10.60;99.90
22742;DHT22;11538;48.884;8.696;2023-11-21T13:28:34;10.60;99.90
22742;DHT22;11538;48.884;8.696;2023-11-21T13:31:03;10.70;99.90
22742;DHT22;11538;48.884;8.696;2023-11-21T13:33:49;10.70;99.90
22742;DHT22;11538;48.884;8.696;2023-11-21T13:36:23;10.70;99.90
22742;DHT22;11538;48.884;8.696;2023-11-21T13:38:51;10.70;99.90
22742;DHT22;11538;48.884;8.696;2023-11-21T13:41:21;10.80;99.90
22742;DHT22;11538;48.884;8.696;2023-11-21T13:43:55;10.80;99.90
22742;DHT22;11538;48.884;8.696;2023-11-21T13:46:30;10.80;99.90
22742;DHT22;11538;48.884;8.696;2023-11-21T13:49:04;10.80;99.90
22742;DHT22;11538;48.884;8.696;2023-11-21T13:51:36;10.80;99.90
22742;DHT22;11538;48.884;8.696;2023-11-21T13:54:12;10.90;99.90
22742;DHT22;11538;48.884;8.696;2023-11-21T13:56:41;10.90;99.90
22742;DHT22;11538;48.884;8.696;2023-11-21T13:59:11;10.90;99.90
22742;DHT22;11538;48.884;8.696;2023-11-21T14:01:50;10.90;99.90
22742;DHT22;11538;48.884;8.696;2023-11-21T14:04:21;10.90;99.90
22742;DHT22;11538;48.884;8.696;2023-11-21T14:06:58;10.90;99.90
22742;DHT22;11538;48.884;8.696;2023-11-21T14:09:27;10.90;99.90
22742;DHT22;11538;48.884;8.696;2023-11-21T14:12:02;10.90;99.90
22742;DHT22;11538;48.884;8.696;2023-11-21T14:14:33;10.90;99.90
22742;DHT22;11538;48.884;8.696;2023-11-21T14:17:00;10.90;99.90
22742;DHT22;11538;48.884;8.696;2023-11-21T14:19:33;10.90;99.90
22742;DHT22;11538;48.884;8.696;2023-11-21T14:22:03;10.90;99.90
22742;DHT22;11538;48.884;8.696;2023-11-21T14:24:30;10.90;99.90
22742;DHT22;11538;48.884;8.696;2023-11-21T14:26:59;10.80;99.90
22742;DHT22;11538;48.884;8.696;2023-11-21T14:29:26;10.80;99.90
22742;DHT22;11538;48.884;8.696;2023-11-21T14:31:54;10.80;99.90
22742;DHT22;11538;48.884;8.696;2023-11-21T14:34:24;10.70;99.90
22742;DHT22;11538;48.884;8.696;2023-11-21T14:36:53;10.70;99.90
22742;DHT22;11538;48.884;8.696;2023-11-21T14:39:20;10.70;99.90
22742;DHT22;11538;48.884;8.696;2023-11-21T14:41:51;10.70;99.90
22742;DHT22;11538;48.884;8.696;2023-11-21T14:44:20;10.70;99.90
22742;DHT22;11538;48.884;8.696;2023-11-21T14:46:50;10.70;99.90
22742;DHT22;11538;48.884;8.696;2023-11-21T14:49:17;10.70;99.90
22742;DHT22;11538;48.884;8.696;2023-11-21T14:51:52;10.70;99.90
22742;DHT22;11538;48.884;8.696;2023-11-21T14:54:50;10.70;99.90
22742;DHT22;11538;48.884;8.696;2023-11-21T14:57:26;10.70;99.90
22742;DHT22;11538;48.884;8.696;2023-11-21T14:59:53;10.70;99.90
22742;DHT22;11538;48.884;8.696;2023-11-21T15:02:24;10.70;99.90
22742;DHT22;11538;48.884;8.696;2023-11-21T15:05:11;10.70;99.90
22742;DHT22;11538;48.884;8.696;2023-11-21T15:07:41;10.60;99.90
22742;DHT22;11538;48.884;8.696;2023-11-21T15:10:10;10.60;99.90
22742;DHT22;11538;48.884;8.696;2023-11-21T15:12:41;10.60;99.90
22742;DHT22;11538;48.884;8.696;2023-11-21T15:15:10;10.60;99.90
22742;DHT22;11538;48.884;8.696;2023-11-21T15:17:37;10.60;99.90
22742;DHT22;11538;48.884;8.696;2023-11-21T15:20:06;10.60;99.90
22742;DHT22;11538;48.884;8.696;2023-11-21T15:22:36;10.60;99.90
22742;DHT22;11538;48.884;8.696;2023-11-21T15:25:04;10.60;99.90
22742;DHT22;11538;48.884;8.696;2023-11-21T15:27:36;10.50;99.90
22742;DHT22;11538;48.884;8.696;2023-11-21T15:30:04;10.50;99.90
22742;DHT22;11538;48.884;8.696;2023-11-21T15:32:31;10.50;99.90
22742;DHT22;11538;48.884;8.696;2023-11-21T15:34:58;10.50;99.90
22742;DHT22;11538;48.884;8.696;2023-11-21T15:37:26;10.50;99.90
22742;DHT22;11538;48.884;8.696;2023-11-21T15:39:57;10.50;99.90
22742;DHT22;11538;48.884;8.696;2023-11-21T15:42:25;10.50;99.90
22742;DHT22;11538;48.884;8.696;2023-11-21T15:44:52;10.50;99.90
22742;DHT22;11538;48.884;8.696;2023-11-21T15:47:18;10.40;99.90
22742;DHT22;11538;48.884;8.696;2023-11-21T15:49:46;10.40;99.90
22742;DHT22;11538;48.884;8.696;2023-11-21T15:52:17;10.40;99.90
22742;DHT22;11538;48.884;8.696;2023-11-21T15:54:45;10.40;99.90
22742;DHT22;11538;48.884;8.696;2023-11-21T15:57:13;10.40;99.90
22742;DHT22;11538;48.884;8.696;2023-11-21T15:59:41;10.30;99.90